TimeCST,TemperatureF,Dew PointF,Humidity,Sea Level PressureIn,VisibilityMPH,Wind Direction,Wind SpeedMPH,Gust SpeedMPH,PrecipitationIn,Events,Conditions,WindDirDegrees,DateUTC
12:15 AM,10.4,-0.4,62,30.23,10.0,NNW,17.3,23.0,N/A,,Overcast,330,2014-01-06 06:15:00
12:35 AM,10.4,-0.4,62,30.25,10.0,NNW,20.7,28.8,N/A,,Overcast,330,2014-01-06 06:35:00
12:55 AM,10.4,-2.2,57,30.27,10.0,NNW,24.2,32.2,N/A,,Overcast,330,2014-01-06 06:55:00
1:15 AM,8.6,-2.2,62,30.28,10.0,NNW,16.1,25.3,N/A,,Mostly Cloudy,340,2014-01-06 07:15:00
1:35 AM,8.6,-0.4,67,30.29,10.0,NNW,16.1,24.2,N/A,,Mostly Cloudy,330,2014-01-06 07:35:00
1:55 AM,8.6,-2.2,62,30.30,10.0,NNW,18.4,27.6,N/A,,Partly Cloudy,330,2014-01-06 07:55:00
2:35 AM,6.8,-2.2,67,30.33,10.0,NNW,12.7,21.9,N/A,,Mostly Cloudy,330,2014-01-06 08:35:00
2:55 AM,6.8,-0.4,72,30.32,10.0,NNW,12.7,-,N/A,,Overcast,330,2014-01-06 08:55:00
3:15 AM,6.8,-0.4,72,30.33,7.0,NNW,15.0,-,N/A,,Overcast,330,2014-01-06 09:15:00
3:35 AM,6.8,-2.2,67,30.34,10.0,NW,13.8,24.2,N/A,,Overcast,320,2014-01-06 09:35:00
3:55 AM,6.8,-2.2,67,30.34,10.0,NW,18.4,27.6,N/A,,Overcast,320,2014-01-06 09:55:00
4:15 AM,6.8,-4.0,61,30.36,10.0,NW,17.3,23.0,N/A,,Overcast,320,2014-01-06 10:15:00
4:35 AM,5.0,-4.0,66,30.37,10.0,NNW,17.3,23.0,N/A,,Mostly Cloudy,330,2014-01-06 10:35:00
4:55 AM,5.0,-4.0,66,30.37,10.0,NNW,15.0,20.7,N/A,,Mostly Cloudy,330,2014-01-06 10:55:00
5:15 AM,5.0,-2.2,72,30.38,6.0,NW,16.1,19.6,N/A,,Overcast,310,2014-01-06 11:15:00
5:35 AM,5.0,-5.8,61,30.39,10.0,NW,18.4,21.9,N/A,,Overcast,310,2014-01-06 11:35:00
5:55 AM,5.0,-7.6,56,30.39,10.0,NW,19.6,24.2,N/A,,Mostly Cloudy,320,2014-01-06 11:55:00
6:15 AM,3.2,-9.4,56,30.40,10.0,NW,19.6,26.5,N/A,,Scattered Clouds,320,2014-01-06 12:15:00
6:35 AM,1.4,-13.0,51,30.41,10.0,NNW,18.4,26.5,N/A,,Clear,330,2014-01-06 12:35:00
6:55 AM,1.4,-13.0,51,30.42,10.0,NNW,13.8,23.0,N/A,,Clear,330,2014-01-06 12:55:00
7:15 AM,1.4,-11.2,56,30.43,10.0,NNW,12.7,21.9,N/A,,Clear,330,2014-01-06 13:15:00
7:35 AM,1.4,-11.2,56,30.44,10.0,NW,15.0,-,N/A,,Clear,320,2014-01-06 13:35:00
7:55 AM,1.4,-11.2,56,30.44,10.0,NW,10.4,-,N/A,,Clear,320,2014-01-06 13:55:00
8:15 AM,3.2,-7.6,61,30.46,10.0,NNW,15.0,23.0,N/A,,Mostly Cloudy,330,2014-01-06 14:15:00
8:35 AM,3.2,-9.4,56,30.46,10.0,WNW,17.3,20.7,N/A,,Overcast,300,2014-01-06 14:35:00
8:55 AM,3.2,-11.2,51,30.47,10.0,NW,18.4,26.5,N/A,,Partly Cloudy,320,2014-01-06 14:55:00
9:15 AM,5.0,-9.4,52,30.47,10.0,WNW,18.4,23.0,N/A,,Clear,300,2014-01-06 15:15:00
9:35 AM,5.0,-9.4,52,30.48,10.0,NW,17.3,24.2,N/A,,Clear,320,2014-01-06 15:35:00
9:55 AM,5.0,-7.6,56,30.47,10.0,NW,16.1,21.9,N/A,,Scattered Clouds,310,2014-01-06 15:55:00
10:15 AM,5.0,-5.8,61,30.47,10.0,NW,17.3,25.3,N/A,,Mostly Cloudy,320,2014-01-06 16:15:00
10:35 AM,5.0,-9.4,52,30.47,10.0,WNW,12.7,23.0,N/A,,Scattered Clouds,300,2014-01-06 16:35:00
10:55 AM,6.8,-5.8,56,30.46,10.0,WNW,13.8,24.2,N/A,,Clear,300,2014-01-06 16:55:00
11:15 AM,6.8,-7.6,52,30.46,10.0,WNW,17.3,-,N/A,,Scattered Clouds,300,2014-01-06 17:15:00
11:35 AM,6.8,-5.8,56,30.45,10.0,NW,17.3,20.7,N/A,,Scattered Clouds,310,2014-01-06 17:35:00
11:55 AM,5.0,-7.6,56,30.44,10.0,NW,13.8,26.5,N/A,,Mostly Cloudy,310,2014-01-06 17:55:00
12:15 PM,6.8,-7.6,52,30.44,10.0,WNW,20.7,26.5,N/A,,Scattered Clouds,300,2014-01-06 18:15:00
12:35 PM,6.8,-9.4,48,30.44,10.0,NW,21.9,27.6,N/A,,Partly Cloudy,310,2014-01-06 18:35:00
12:55 PM,6.8,-7.6,52,30.44,10.0,NW,20.7,26.5,N/A,,Clear,310,2014-01-06 18:55:00
1:15 PM,6.8,-7.6,52,30.45,10.0,WNW,16.1,25.3,N/A,,Partly Cloudy,300,2014-01-06 19:15:00
1:35 PM,6.8,-7.6,52,30.45,10.0,NW,18.4,24.2,N/A,,Scattered Clouds,320,2014-01-06 19:35:00
1:55 PM,6.8,-5.8,56,30.45,10.0,WNW,18.4,-,N/A,,Mostly Cloudy,290,2014-01-06 19:55:00
2:15 PM,6.8,-5.8,56,30.45,10.0,WNW,16.1,20.7,N/A,,Mostly Cloudy,300,2014-01-06 20:15:00
2:35 PM,6.8,-4.0,61,30.46,10.0,NW,10.4,-,N/A,,Mostly Cloudy,310,2014-01-06 20:35:00
2:55 PM,6.8,-4.0,61,30.46,10.0,WNW,17.3,20.7,N/A,,Mostly Cloudy,290,2014-01-06 20:55:00
3:15 PM,8.6,-4.0,57,30.46,10.0,West,18.4,24.2,N/A,,Mostly Cloudy,270,2014-01-06 21:15:00
3:35 PM,6.8,-4.0,61,30.47,10.0,West,19.6,25.3,N/A,,Mostly Cloudy,280,2014-01-06 21:35:00
3:55 PM,6.8,-4.0,61,30.47,10.0,WNW,16.1,19.6,N/A,,Mostly Cloudy,290,2014-01-06 21:55:00
4:15 PM,6.8,-5.8,56,30.47,10.0,WNW,15.0,20.7,N/A,,Mostly Cloudy,290,2014-01-06 22:15:00
4:35 PM,5.0,-7.6,56,30.48,10.0,WNW,18.4,24.2,N/A,,Mostly Cloudy,290,2014-01-06 22:35:00
4:55 PM,5.0,-7.6,56,30.48,10.0,WNW,17.3,20.7,N/A,,Partly Cloudy,290,2014-01-06 22:55:00
5:15 PM,5.0,-5.8,61,30.48,10.0,WNW,9.2,-,N/A,,Clear,290,2014-01-06 23:15:00
5:35 PM,5.0,-5.8,61,30.48,10.0,WNW,11.5,17.3,N/A,,Scattered Clouds,300,2014-01-06 23:35:00
5:55 PM,5.0,-4.0,66,30.48,10.0,WNW,9.2,-,N/A,,Partly Cloudy,300,2014-01-06 23:55:00
6:15 PM,5.0,-4.0,66,30.49,10.0,West,8.1,-,N/A,,Clear,280,2014-01-07 00:15:00
6:35 PM,5.0,-4.0,66,30.49,10.0,WNW,8.1,-,N/A,,Clear,290,2014-01-07 00:35:00
6:55 PM,5.0,-4.0,66,30.50,10.0,WNW,8.1,-,N/A,,Clear,290,2014-01-07 00:55:00
7:15 PM,5.0,-4.0,66,30.50,10.0,West,6.9,-,N/A,,Clear,280,2014-01-07 01:15:00
7:35 PM,5.0,-4.0,66,30.50,10.0,WNW,4.6,-,N/A,,Clear,290,2014-01-07 01:35:00
7:55 PM,5.0,-4.0,66,30.51,10.0,WNW,6.9,-,N/A,,Clear,290,2014-01-07 01:55:00
8:15 PM,5.0,-4.0,66,30.52,10.0,West,4.6,-,N/A,,Clear,280,2014-01-07 02:15:00
8:35 PM,5.0,-4.0,66,30.52,10.0,West,5.8,-,N/A,,Clear,270,2014-01-07 02:35:00
8:55 PM,5.0,-4.0,66,30.53,10.0,West,4.6,-,N/A,,Clear,270,2014-01-07 02:55:00
9:15 PM,5.0,-2.2,72,30.53,10.0,WNW,5.8,-,N/A,,Clear,290,2014-01-07 03:15:00
9:35 PM,5.0,-4.0,66,30.53,10.0,WNW,8.1,-,N/A,,Clear,290,2014-01-07 03:35:00
9:55 PM,5.0,-4.0,66,30.54,10.0,WNW,6.9,-,N/A,,Clear,290,2014-01-07 03:55:00
10:15 PM,5.0,-4.0,66,30.54,10.0,WNW,10.4,-,N/A,,Clear,300,2014-01-07 04:15:00
10:35 PM,5.0,-4.0,66,30.54,10.0,NW,8.1,-,N/A,,Clear,310,2014-01-07 04:35:00
10:55 PM,5.0,-5.8,61,30.54,10.0,WNW,9.2,-,N/A,,Clear,300,2014-01-07 04:55:00
11:15 PM,5.0,-7.6,56,30.54,10.0,WNW,9.2,-,N/A,,Clear,300,2014-01-07 05:15:00
11:35 PM,5.0,-5.8,61,30.54,10.0,NW,6.9,-,N/A,,Clear,310,2014-01-07 05:35:00
11:55 PM,5.0,-7.6,56,30.54,10.0,WNW,10.4,-,N/A,,Clear,300,2014-01-07 05:55:00